Afric Star — A8KJ8 — position and weather

sailwx.info

Track history (hours):
 
Tides and Currents Weather Stations Pressure Air Temp Water Temp Dewpoint Dewpoint Depression Visibility Wind Speed Wind Dir Waves Ship Positions

Afric Star

Last reported at 2015-Mar-29 15:31 UTC. Time now 2015-Mar-29 16:08 UTC.
Position N 39°56' W 024°04'.

Length 158 m; draft 8.5 m.

Type: Cargo ship. MMSI: 636013069.

Date/timePositionNaut miles runAvg speedWind from/ knotsBaromVisibWave heightAir tempDewpointWater temp
2015-Mar-29 15:31N 39°56' W 024°04'1815.4
2015-Mar-29 14:20N 39°45' W 024°23'1715.6
2015-Mar-29 13:14N 39°35' W 024°41'1115.4
2015-Mar-29 12:32N 39°29' W 024°53'1615.7
2015-Mar-29 11:30N 39°20' W 025°10'1615.7
2015-Mar-29 10:29N 39°10' W 025°27'3115.6
2015-Mar-29 08:31N 38°53' W 025°59'1515.4
2015-Mar-29 07:33N 38°44' W 026°15'1615.5
2015-Mar-29 06:33N 38°36' W 026°31'1615.6
2015-Mar-29 05:33N 38°27' W 026°47'1615.6
2015-Mar-29 04:33N 38°19' W 027°05'1515.2
2015-Mar-29 03:33N 38°12' W 027°21'1515.1
2015-Mar-29 02:33N 38°05' W 027°39'1515.2
2015-Mar-29 01:33N 37°57' W 027°55'1515.4
2015-Mar-29 00:33N 37°50' W 028°13'1515.5
2015-Mar-28 23:33N 37°42' W 028°30'1615.7
2015-Mar-28 22:33N 37°35' W 028°47'1515.4
2015-Mar-28 21:34N 37°28' W 029°04'1515.5
2015-Mar-28 20:33N 37°20' W 029°21'  
Track history (hours):
 
Tides and Currents Weather Stations Pressure Air Temp Water Temp Dewpoint Dewpoint Depression Visibility Wind Speed Wind Dir Waves Ship Positions

Afric Star

Last reported at 2015-Mar-29 15:31 UTC. Time now 2015-Mar-29 16:08 UTC.
Position N 39°56' W 024°04'.

Length 158 m; draft 8.5 m.

Type: Cargo ship. MMSI: 636013069.

Date/timePositionNaut miles runAvg speedWind from/ knotsBaromVisibWave heightAir tempDewpointWater temp
2015-Mar-29 15:31N 39°56' W 024°04'1815.4
2015-Mar-29 14:20N 39°45' W 024°23'1715.6
2015-Mar-29 13:14N 39°35' W 024°41'1115.4
2015-Mar-29 12:32N 39°29' W 024°53'1615.7
2015-Mar-29 11:30N 39°20' W 025°10'1615.7
2015-Mar-29 10:29N 39°10' W 025°27'3115.6
2015-Mar-29 08:31N 38°53' W 025°59'1515.4
2015-Mar-29 07:33N 38°44' W 026°15'1615.5
2015-Mar-29 06:33N 38°36' W 026°31'1615.6
2015-Mar-29 05:33N 38°27' W 026°47'1615.6
2015-Mar-29 04:33N 38°19' W 027°05'1515.2
2015-Mar-29 03:33N 38°12' W 027°21'1515.1
2015-Mar-29 02:33N 38°05' W 027°39'1515.2
2015-Mar-29 01:33N 37°57' W 027°55'1515.4
2015-Mar-29 00:33N 37°50' W 028°13'1515.5
2015-Mar-28 23:33N 37°42' W 028°30'1615.7
2015-Mar-28 22:33N 37°35' W 028°47'1515.4
2015-Mar-28 21:34N 37°28' W 029°04'1515.5
2015-Mar-28 20:33N 37°20' W 029°21'  

Dump ship's entire track history